Latest Weather Observations for Clare

IDS60801

Issued at 2:01 pm CST Saturday 27 August 2016 (issued every 30 minutes, with the page automatically refreshed every 10 minutes)

About weather observations | Map of weather stations | Latest weather observations for SA | Other Formats
Station Details ID: 021131 Name: CLARE HIGH SCHOOL Lat: -33.82 Lon: 138.59 Height: 395.0 m
Data from the previous 72 hours. | See also: Recent months at Clare
Date/Time
CST
Temp
°C
App
Temp
°C
Dew
Point
°C
Rel
Hum
%
Delta-T
°C
Wind Press
QNH
hPa
Press
MSL
hPa
Rain since
9am
mm
Dir  Spd
km/h
Gust
km/h
Spd
kts
Gust
kts
27/02:00pm 15.1 9.3 2.3 42 5.8 WNW 22 32 12 17 1019.7 - 0.0
27/01:30pm 14.5 9.2 2.1 43 5.6 NW 19 28 10 15 1020.2 - 0.0
27/01:00pm 14.8 8.6 2.0 42 5.8 NW 24 39 13 21 1020.6 - 0.0
27/12:30pm 14.1 9.2 4.1 51 4.7 NW 19 30 10 16 1021.2 - 0.0
27/12:00pm 13.7 7.5 2.0 45 5.2 NW 24 43 13 23 1021.7 1022.1 0.0
27/11:30am 13.6 7.8 2.5 47 5.0 NW 22 32 12 17 1021.9 - 0.0
27/11:00am 13.1 7.4 2.6 49 4.7 NW 22 37 12 20 1022.1 - 0.0
27/10:30am 12.1 8.5 5.0 62 3.3 N 13 20 7 11 1022.3 - 0.0
27/10:00am 10.7 7.1 4.8 67 2.7 N 13 19 7 10 1022.4 - 0.0
27/09:30am 9.2 5.9 4.4 72 2.2 NNW 11 20 6 11 1022.7 - 0.0
27/09:00am 7.8 5.7 3.7 75 1.8 NNW 4 9 2 5 1022.8 1023.3 0.0
27/08:30am 5.0 3.0 2.2 82 1.2 NE 2 7 1 4 1022.9 - 0.0
27/08:00am 4.5 3.2 3.9 96 0.3 CALM 0 0 0 0 1022.7 - 0.0
27/07:30am 2.8 1.1 1.8 93 0.4 CALM 0 0 0 0 1022.5 - 0.0
27/07:00am 2.2 0.5 2.1 99 0.0 CALM 0 0 0 0 1022.4 - 0.0
27/06:30am 0.7 -1.2 0.6 99 0.0 CALM 0 0 0 0 1022.4 - 0.0
27/06:00am 0.5 -1.4 0.4 99 0.0 CALM 0 0 0 0 1022.0 1022.4 0.0
27/05:30am 0.2 -1.8 0.1 99 0.0 CALM 0 0 0 0 1022.0 - 0.0
27/05:00am -0.3 -2.3 -0.4 99 0.0 CALM 0 0 0 0 1022.1 - 0.0
27/04:30am 0.0 -2.0 -0.1 99 0.0 CALM 0 0 0 0 1022.1 - 0.0
27/04:00am -0.1 -2.1 -0.2 99 0.0 CALM 0 0 0 0 1022.0 - 0.0
27/03:30am -0.6 -2.7 -0.7 99 0.0 CALM 0 0 0 0 1022.1 - 0.0
27/03:00am -0.3 -2.3 -0.4 99 0.0 CALM 0 0 0 0 1022.3 1022.8 0.0
27/02:30am 0.0 -2.0 -0.1 99 0.0 CALM 0 0 0 0 1022.5 - 0.0
27/02:00am 0.1 -1.9 0.0 99 0.0 CALM 0 0 0 0 1022.5 - 0.0
27/01:30am 0.4 -1.5 0.3 99 0.0 CALM 0 0 0 0 1022.8 - 0.0
27/01:00am 0.5 -1.4 0.4 99 0.0 CALM 0 0 0 0 1022.8 - 0.0
27/12:30am 0.7 -1.2 0.6 99 0.0 CALM 0 0 0 0 1022.8 - 0.0
27/12:00am 0.6 -1.3 0.5 99 0.0 CALM 0 0 0 0 1023.0 1023.5 0.0
 
Date/Time
CST
Temp
°C
App
Temp
°C
Dew
Point
°C
Rel
Hum
%
Delta-T
°C
Wind Press
QNH
hPa
Press
MSL
hPa
Rain since
9am
mm
Dir  Spd
km/h
Gust
km/h
Spd
kts
Gust
kts
26/11:30pm 0.7 -1.2 0.6 99 0.0 CALM 0 0 0 0 1023.5 - 0.0
26/11:00pm 1.2 -0.6 1.1 99 0.0 CALM 0 0 0 0 1023.7 - 0.0
26/10:30pm 1.7 0.0 1.6 99 0.0 CALM 0 0 0 0 1023.9 - 0.0
26/10:00pm 2.0 0.3 1.9 99 0.0 CALM 0 0 0 0 1023.8 - 0.0
26/09:30pm 2.3 0.7 2.2 99 0.0 CALM 0 0 0 0 1024.0 - 0.0
26/09:00pm 2.8 1.2 2.7 99 0.0 CALM 0 0 0 0 1023.9 1024.3 0.0
26/08:30pm 3.0 1.4 2.6 97 0.2 CALM 0 0 0 0 1023.9 - 0.0
26/08:00pm 3.5 1.9 2.5 93 0.4 CALM 0 0 0 0 1023.9 - 0.0
26/07:30pm 4.5 3.0 3.2 91 0.5 CALM 0 0 0 0 1024.0 - 0.0
26/07:00pm 5.2 3.8 3.4 88 0.8 CALM 0 0 0 0 1023.9 - 0.0
26/06:30pm 6.2 4.8 3.4 82 1.2 CALM 0 0 0 0 1023.6 - 0.0
26/06:00pm 7.7 6.4 3.9 77 1.7 CALM 0 0 0 0 1023.4 1023.8 0.0
26/05:30pm 10.3 9.0 4.0 65 2.9 CALM 0 7 0 4 1023.1 - 0.0
26/05:00pm 10.8 8.2 4.0 63 3.1 W 7 13 4 7 1022.8 - 0.0
26/04:30pm 10.6 8.0 4.1 64 3.0 W 7 13 4 7 1022.7 - 0.0
26/04:00pm 10.0 7.5 3.5 64 2.9 WSW 6 11 3 6 1022.6 - 0.0
26/03:30pm 10.5 7.7 3.3 61 3.2 SSW 7 13 4 7 1022.7 - 0.0
26/03:00pm 10.5 7.7 3.3 61 3.2 WSW 7 19 4 10 1022.9 1023.4 0.0
26/02:30pm 10.5 7.9 3.3 61 3.2 SW 6 15 3 8 1023.1 - 0.0
26/02:00pm 10.3 7.5 2.9 60 3.3 WSW 7 15 4 8 1023.3 - 0.0
26/01:30pm 10.2 6.3 3.3 62 3.1 SW 13 20 7 11 1023.5 - 0.0
26/01:00pm 10.2 7.0 2.8 60 3.3 SW 9 15 5 8 1023.8 - 0.0
26/12:30pm 10.1 6.8 2.2 58 3.4 SSW 9 17 5 9 1024.2 - 0.0
26/12:00pm 9.6 6.0 3.1 64 2.8 WSW 11 20 6 11 1024.6 1025.1 0.0
26/11:30am 9.2 5.5 2.1 61 3.0 WSW 11 17 6 9 1025.0 - 0.0
26/11:00am 9.0 5.5 1.4 59 3.2 SSW 9 17 5 9 1025.3 - 0.0
26/10:30am 9.4 6.3 3.8 68 2.5 SW 9 15 5 8 1025.3 - 0.0
26/10:00am 7.8 6.6 6.3 90 0.7 WNW 2 11 1 6 1025.1 - 0.0
26/09:30am 6.8 6.0 6.7 99 0.0 CALM 0 0 0 0 1025.3 - 0.0
26/09:00am 5.5 4.5 5.4 99 0.0 CALM 0 0 0 0 1025.3 1025.8 0.4
26/08:30am 4.8 3.6 4.7 99 0.0 CALM 0 0 0 0 1025.3 - 0.4
26/08:00am 4.1 2.8 4.0 99 0.0 CALM 0 0 0 0 1025.0 - 0.4
26/07:30am 3.6 2.2 3.5 99 0.0 CALM 0 0 0 0 1024.8 - 0.4
26/07:00am 3.3 1.8 3.2 99 0.0 CALM 0 0 0 0 1024.4 - 0.4
26/06:30am 3.4 2.0 3.3 99 0.0 CALM 0 0 0 0 1024.1 - 0.4
26/06:00am 3.3 1.8 3.2 99 0.0 CALM 0 0 0 0 1023.8 1024.2 0.4
26/05:30am 3.3 1.8 3.2 99 0.0 CALM 0 0 0 0 1023.4 - 0.4
26/05:00am 2.9 1.4 2.8 99 0.0 CALM 0 0 0 0 1023.3 - 0.0
26/04:30am 2.2 0.5 2.1 99 0.0 CALM 0 0 0 0 1023.0 - 0.0
26/04:00am 1.6 -0.2 1.5 99 0.0 CALM 0 0 0 0 1022.8 - 0.0
26/03:30am 0.9 -1.0 0.8 99 0.0 CALM 0 0 0 0 1022.8 - 0.0
26/03:00am 0.7 -1.2 0.6 99 0.0 CALM 0 0 0 0 1022.7 1023.2 0.0
26/02:30am 1.0 -0.8 0.9 99 0.0 CALM 0 0 0 0 1022.9 - 0.0
26/02:00am 1.3 -0.5 1.2 99 0.0 CALM 0 0 0 0 1022.8 - 0.0
26/01:30am 1.6 -0.2 1.5 99 0.0 CALM 0 0 0 0 1022.8 - 0.0
26/01:00am 2.3 0.7 2.2 99 0.0 CALM 0 0 0 0 1022.8 - 0.0
26/12:30am 2.3 0.7 2.2 99 0.0 CALM 0 0 0 0 1022.7 - 0.0
26/12:00am 2.9 1.4 2.8 99 0.0 CALM 0 0 0 0 1022.8 1023.3 0.0
 
Date/Time
CST
Temp
°C
App
Temp
°C
Dew
Point
°C
Rel
Hum
%
Delta-T
°C
Wind Press
QNH
hPa
Press
MSL
hPa
Rain since
9am
mm
Dir  Spd
km/h
Gust
km/h
Spd
kts
Gust
kts
25/11:30pm 3.1 1.6 3.0 99 0.0 CALM 0 0 0 0 1022.8 - 0.0
25/11:00pm 3.3 1.7 2.6 95 0.3 CALM 0 0 0 0 1022.8 - 0.0
25/10:30pm 4.2 2.8 3.6 96 0.3 CALM 0 6 0 3 1022.7 - 0.0
25/10:00pm 4.2 2.8 3.6 96 0.3 CALM 0 0 0 0 1022.7 - 0.0
25/09:30pm 4.5 3.1 3.5 93 0.4 CALM 0 0 0 0 1022.7 - 0.0
25/09:00pm 3.7 2.1 2.5 92 0.5 CALM 0 2 0 1 1022.3 1022.8 0.0
25/08:30pm 4.2 2.6 2.4 88 0.7 CALM 0 0 0 0 1022.1 - 0.0
25/08:00pm 5.1 3.7 3.3 88 0.8 CALM 0 0 0 0 1022.1 - 0.0
25/07:30pm 5.7 4.1 2.7 81 1.3 CALM 0 0 0 0 1021.8 - 0.0
25/07:00pm 6.9 4.2 2.8 75 1.7 S 6 9 3 5 1021.5 - 0.0
25/06:30pm 7.4 5.7 3.8 78 1.6 S 2 7 1 4 1021.3 - 0.0
25/06:00pm 8.4 5.5 4.4 76 1.8 SSW 9 13 5 7 1021.0 1021.4 0.0
25/05:30pm 9.8 6.3 3.5 65 2.8 SSW 11 24 6 13 1020.6 - 0.0
25/05:00pm 10.8 6.7 2.1 55 3.8 SSW 13 19 7 10 1020.0 - 0.0
25/04:30pm 11.3 6.5 2.6 55 3.8 SSW 17 24 9 13 1019.5 - 0.0
25/04:00pm 11.2 8.0 0.9 49 4.4 SSE 7 11 4 6 1019.3 - 0.0
25/03:30pm 11.3 8.0 0.4 47 4.6 SSE 7 15 4 8 1019.2 - 0.0
25/03:00pm 12.4 8.4 0.2 43 5.2 SSE 11 19 6 10 1019.0 1019.4 0.0
25/02:30pm 11.6 7.9 0.1 45 4.8 SE 9 19 5 10 1019.0 - 0.0
25/02:00pm 12.5 8.1 0.6 44 5.1 SSE 13 24 7 13 1019.1 - 0.0
25/01:30pm 12.5 8.8 0.0 42 5.3 SSE 9 19 5 10 1019.1 - 0.0
25/01:00pm 11.8 7.9 -1.7 39 5.4 SSE 9 20 5 11 1019.3 - 0.0
25/12:30pm 11.5 8.0 -1.6 40 5.3 E 7 17 4 9 1019.5 - 0.0
25/12:00pm 11.4 8.8 1.1 49 4.4 SE 4 13 2 7 1019.6 1020.0 0.0
25/11:30am 10.9 7.2 2.2 55 3.8 E 11 24 6 13 1019.5 - 0.0
25/11:00am 10.2 7.2 1.1 53 3.9 E 6 15 3 8 1019.9 - 0.0
25/10:30am 9.8 7.0 2.9 62 3.0 ESE 7 13 4 7 1019.9 - 0.0
25/10:00am 9.5 6.4 3.7 67 2.6 E 9 15 5 8 1019.6 - 0.0
25/09:30am 8.6 5.0 3.2 69 2.4 ENE 11 17 6 9 1019.4 - 0.0
25/09:00am 8.1 4.5 3.0 70 2.2 E 11 17 6 9 1019.2 1019.6 0.0
25/08:30am 7.3 4.1 3.0 74 1.9 E 9 15 5 8 1019.0 - 0.0
25/08:00am 6.5 4.1 2.4 75 1.7 ESE 4 9 2 5 1018.7 - 0.0
25/07:30am 5.3 3.6 2.0 79 1.4 CALM 0 7 0 4 1018.4 - 0.0
25/07:00am 2.2 0.4 0.9 91 0.5 CALM 0 0 0 0 1017.8 - 0.0
25/06:30am 3.4 1.6 1.0 84 0.9 CALM 0 2 0 1 1017.5 - 0.0
25/06:00am 3.9 2.1 1.1 82 1.1 CALM 0 4 0 2 1017.2 1017.6 0.0
25/05:30am 3.1 1.2 0.7 84 0.9 CALM 0 0 0 0 1017.1 - 0.0
25/05:00am 2.9 1.0 0.5 84 0.9 CALM 0 0 0 0 1016.9 - 0.0
25/04:30am 2.9 1.0 0.8 86 0.8 CALM 0 0 0 0 1016.5 - 0.0
25/04:00am 4.3 2.4 0.8 78 1.4 CALM 0 0 0 0 1016.2 - 0.0
25/03:30am 4.5 2.7 1.0 78 1.4 CALM 0 7 0 4 1016.2 - 0.0
25/03:00am 4.5 2.7 1.2 79 1.3 CALM 0 6 0 3 1016.2 1016.6 0.0
25/02:30am 4.7 2.6 1.7 81 1.2 SE 2 13 1 7 1016.2 - 0.0
25/02:00am 2.6 0.9 1.7 94 0.4 CALM 0 2 0 1 1016.3 - 0.0
25/01:30am 3.8 2.3 3.2 96 0.3 CALM 0 2 0 1 1016.3 - 0.0
25/01:00am 3.0 1.5 2.9 99 0.0 CALM 0 4 0 2 1016.3 - 0.0
25/12:30am 3.3 1.8 3.2 99 0.0 CALM 0 0 0 0 1016.2 - 0.0
25/12:00am 3.5 2.0 3.2 98 0.1 CALM 0 4 0 2 1016.2 1016.6 0.0
 
Date/Time
CST
Temp
°C
App
Temp
°C
Dew
Point
°C
Rel
Hum
%
Delta-T
°C
Wind Press
QNH
hPa
Press
MSL
hPa
Rain since
9am
mm
Dir  Spd
km/h
Gust
km/h
Spd
kts
Gust
kts
24/11:30pm 3.9 2.5 3.6 98 0.1 CALM 0 0 0 0 1016.3 - 0.0
24/11:00pm 4.2 2.8 3.8 97 0.2 CALM 0 0 0 0 1016.4 - 0.0
24/10:30pm 4.9 3.6 4.2 95 0.3 CALM 0 0 0 0 1016.3 - 0.0
24/10:00pm 5.6 4.4 4.4 92 0.5 CALM 0 0 0 0 1016.3 - 0.0
24/09:30pm 6.5 5.4 5.0 90 0.7 CALM 0 0 0 0 1016.3 - 0.0
24/09:00pm 7.7 6.6 5.2 84 1.1 CALM 0 0 0 0 1016.5 1016.9 0.0
24/08:30pm 8.7 7.7 5.6 81 1.4 CALM 0 6 0 3 1016.2 - 0.0
24/08:00pm 9.0 6.7 5.7 80 1.5 SSE 7 13 4 7 1015.9 - 0.0
24/07:30pm 9.5 7.4 5.7 77 1.8 ESE 6 15 3 8 1015.6 - 0.0
24/07:00pm 9.9 8.6 5.9 76 1.9 SE 2 7 1 4 1015.6 - 0.0
24/06:30pm 9.2 8.1 5.0 75 1.9 CALM 0 0 0 0 1015.0 - 0.0
24/06:00pm 9.5 8.4 4.9 73 2.1 CALM 0 0 0 0 1014.7 1015.1 0.0
24/05:30pm 11.9 10.7 4.6 61 3.4 CALM 0 0 0 0 1014.5 - 0.0
24/05:00pm 11.5 9.3 3.5 58 3.6 WSW 4 11 2 6 1014.2 - 0.0
24/04:30pm 11.7 9.0 3.7 58 3.6 W 7 11 4 6 1013.9 - 0.0
24/04:00pm 13.3 10.2 3.4 51 4.5 WSW 9 15 5 8 1013.7 - 0.0
24/03:30pm 13.4 9.7 2.3 47 5.0 W 11 19 6 10 1013.7 - 0.0
24/03:00pm 13.8 10.5 4.4 53 4.4 SW 11 19 6 10 1013.6 1013.9 0.0
24/02:30pm 13.5 11.4 5.9 60 3.7 SW 6 11 3 6 1013.7 - 0.0

Other Formats:

Comma delimited format used in spreadsheet applications
http://www.bom.gov.au/fwo/IDS60801/IDS60801.95667.axf

JavaScript Object Notation format (JSON) in row-major order
http://www.bom.gov.au/fwo/IDS60801/IDS60801.95667.json